sensor_id;sensor_type;location;lat;lon;timestamp;P1;durP1;ratioP1;P2;durP2;ratioP2
34673;SDS011;20879;55.668;37.858;2023-01-28T00:01:49;27.23;;;14.82;;
34673;SDS011;20879;55.668;37.858;2023-01-28T00:04:18;23.15;;;14.18;;
34673;SDS011;20879;55.668;37.858;2023-01-28T00:06:48;25.60;;;14.45;;
34673;SDS011;20879;55.668;37.858;2023-01-28T00:09:20;24.23;;;15.00;;
34673;SDS011;20879;55.668;37.858;2023-01-28T00:12:00;27.60;;;18.20;;
34673;SDS011;20879;55.668;37.858;2023-01-28T00:14:29;25.98;;;14.40;;
34673;SDS011;20879;55.668;37.858;2023-01-28T00:16:58;26.05;;;15.75;;
34673;SDS011;20879;55.668;37.858;2023-01-28T00:19:27;26.98;;;20.13;;
34673;SDS011;20879;55.668;37.858;2023-01-28T00:22:02;25.20;;;16.17;;
34673;SDS011;20879;55.668;37.858;2023-01-28T00:24:33;25.40;;;18.88;;
34673;SDS011;20879;55.668;37.858;2023-01-28T00:27:02;19.63;;;11.77;;
34673;SDS011;20879;55.668;37.858;2023-01-28T00:29:36;24.13;;;13.68;;
34673;SDS011;20879;55.668;37.858;2023-01-28T00:32:11;19.35;;;11.73;;
34673;SDS011;20879;55.668;37.858;2023-01-28T00:34:46;16.75;;;11.55;;
34673;SDS011;20879;55.668;37.858;2023-01-28T00:37:15;19.45;;;11.45;;
34673;SDS011;20879;55.668;37.858;2023-01-28T00:39:46;17.88;;;11.60;;
34673;SDS011;20879;55.668;37.858;2023-01-28T00:42:30;18.50;;;12.18;;
34673;SDS011;20879;55.668;37.858;2023-01-28T00:45:04;17.27;;;11.30;;
34673;SDS011;20879;55.668;37.858;2023-01-28T00:47:34;11.80;;;7.70;;
34673;SDS011;20879;55.668;37.858;2023-01-28T00:50:04;17.33;;;11.48;;
34673;SDS011;20879;55.668;37.858;2023-01-28T00:55:11;16.23;;;11.30;;
34673;SDS011;20879;55.668;37.858;2023-01-28T01:00:10;14.55;;;10.60;;
34673;SDS011;20879;55.668;37.858;2023-01-28T01:02:40;14.13;;;9.95;;
34673;SDS011;20879;55.668;37.858;2023-01-28T01:05:10;15.23;;;10.95;;
34673;SDS011;20879;55.668;37.858;2023-01-28T01:07:40;14.05;;;9.15;;
34673;SDS011;20879;55.668;37.858;2023-01-28T01:10:12;13.02;;;9.25;;
34673;SDS011;20879;55.668;37.858;2023-01-28T01:12:44;13.65;;;9.30;;
34673;SDS011;20879;55.668;37.858;2023-01-28T01:15:14;12.38;;;8.63;;
34673;SDS011;20879;55.668;37.858;2023-01-28T01:17:45;12.45;;;9.05;;
34673;SDS011;20879;55.668;37.858;2023-01-28T01:20:17;13.65;;;9.98;;
34673;SDS011;20879;55.668;37.858;2023-01-28T01:22:50;12.27;;;9.18;;
34673;SDS011;20879;55.668;37.858;2023-01-28T01:25:21;11.30;;;8.38;;
34673;SDS011;20879;55.668;37.858;2023-01-28T01:27:50;8.98;;;6.70;;
34673;SDS011;20879;55.668;37.858;2023-01-28T01:30:19;9.73;;;7.22;;
34673;SDS011;20879;55.668;37.858;2023-01-28T01:32:49;11.57;;;8.10;;
34673;SDS011;20879;55.668;37.858;2023-01-28T01:35:18;11.40;;;8.00;;
34673;SDS011;20879;55.668;37.858;2023-01-28T01:37:47;12.32;;;9.68;;
34673;SDS011;20879;55.668;37.858;2023-01-28T01:40:16;13.52;;;9.18;;
34673;SDS011;20879;55.668;37.858;2023-01-28T01:42:48;10.80;;;7.95;;
34673;SDS011;20879;55.668;37.858;2023-01-28T01:45:17;9.45;;;7.15;;
34673;SDS011;20879;55.668;37.858;2023-01-28T01:47:48;10.45;;;7.15;;
34673;SDS011;20879;55.668;37.858;2023-01-28T01:50:26;9.65;;;7.28;;
34673;SDS011;20879;55.668;37.858;2023-01-28T01:52:59;11.38;;;8.35;;
34673;SDS011;20879;55.668;37.858;2023-01-28T01:55:36;9.55;;;6.13;;
34673;SDS011;20879;55.668;37.858;2023-01-28T01:58:13;13.10;;;9.02;;
34673;SDS011;20879;55.668;37.858;2023-01-28T02:00:46;11.55;;;9.23;;
34673;SDS011;20879;55.668;37.858;2023-01-28T02:03:20;10.38;;;7.90;;
34673;SDS011;20879;55.668;37.858;2023-01-28T02:05:53;8.82;;;6.95;;
34673;SDS011;20879;55.668;37.858;2023-01-28T02:08:22;9.43;;;7.22;;
34673;SDS011;20879;55.668;37.858;2023-01-28T02:10:54;10.75;;;7.25;;
34673;SDS011;20879;55.668;37.858;2023-01-28T02:13:30;8.02;;;6.43;;
34673;SDS011;20879;55.668;37.858;2023-01-28T02:16:03;10.10;;;7.78;;
34673;SDS011;20879;55.668;37.858;2023-01-28T02:18:34;10.93;;;7.22;;
34673;SDS011;20879;55.668;37.858;2023-01-28T02:21:09;11.65;;;6.63;;
34673;SDS011;20879;55.668;37.858;2023-01-28T02:23:59;12.77;;;7.53;;
34673;SDS011;20879;55.668;37.858;2023-01-28T02:26:50;9.70;;;7.18;;
34673;SDS011;20879;55.668;37.858;2023-01-28T02:29:35;10.05;;;7.38;;
34673;SDS011;20879;55.668;37.858;2023-01-28T02:32:11;9.60;;;6.93;;
34673;SDS011;20879;55.668;37.858;2023-01-28T02:34:46;9.30;;;6.60;;
34673;SDS011;20879;55.668;37.858;2023-01-28T02:37:21;10.45;;;6.22;;
34673;SDS011;20879;55.668;37.858;2023-01-28T02:39:56;10.88;;;7.28;;
34673;SDS011;20879;55.668;37.858;2023-01-28T02:42:30;11.98;;;8.85;;
34673;SDS011;20879;55.668;37.858;2023-01-28T02:45:03;11.27;;;8.00;;
34673;SDS011;20879;55.668;37.858;2023-01-28T02:47:43;10.40;;;7.25;;
34673;SDS011;20879;55.668;37.858;2023-01-28T02:50:33;9.13;;;5.93;;
34673;SDS011;20879;55.668;37.858;2023-01-28T02:53:20;11.23;;;7.43;;
34673;SDS011;20879;55.668;37.858;2023-01-28T02:56:23;11.20;;;7.00;;
34673;SDS011;20879;55.668;37.858;2023-01-28T02:59:01;10.85;;;7.43;;
34673;SDS011;20879;55.668;37.858;2023-01-28T03:02:10;12.07;;;7.70;;
34673;SDS011;20879;55.668;37.858;2023-01-28T03:04:52;13.23;;;9.68;;
34673;SDS011;20879;55.668;37.858;2023-01-28T03:07:26;12.38;;;8.50;;
34673;SDS011;20879;55.668;37.858;2023-01-28T03:10:01;10.05;;;7.35;;
34673;SDS011;20879;55.668;37.858;2023-01-28T03:12:32;13.43;;;8.95;;
34673;SDS011;20879;55.668;37.858;2023-01-28T03:15:16;10.65;;;7.28;;
34673;SDS011;20879;55.668;37.858;2023-01-28T03:18:03;12.63;;;9.07;;
34673;SDS011;20879;55.668;37.858;2023-01-28T03:20:51;13.15;;;10.32;;
34673;SDS011;20879;55.668;37.858;2023-01-28T03:23:47;13.18;;;8.80;;
34673;SDS011;20879;55.668;37.858;2023-01-28T03:26:36;14.93;;;10.70;;
34673;SDS011;20879;55.668;37.858;2023-01-28T03:29:21;14.18;;;10.90;;
34673;SDS011;20879;55.668;37.858;2023-01-28T03:32:09;12.07;;;8.18;;
34673;SDS011;20879;55.668;37.858;2023-01-28T03:34:55;13.18;;;7.93;;
34673;SDS011;20879;55.668;37.858;2023-01-28T03:37:40;11.02;;;7.47;;
34673;SDS011;20879;55.668;37.858;2023-01-28T03:40:22;18.02;;;12.23;;
34673;SDS011;20879;55.668;37.858;2023-01-28T03:42:52;14.70;;;11.73;;
34673;SDS011;20879;55.668;37.858;2023-01-28T03:45:32;11.05;;;7.95;;
34673;SDS011;20879;55.668;37.858;2023-01-28T03:48:04;9.35;;;6.40;;
34673;SDS011;20879;55.668;37.858;2023-01-28T03:50:36;11.68;;;7.28;;
34673;SDS011;20879;55.668;37.858;2023-01-28T03:53:06;9.20;;;7.00;;
34673;SDS011;20879;55.668;37.858;2023-01-28T03:55:46;10.80;;;8.73;;
34673;SDS011;20879;55.668;37.858;2023-01-28T03:58:18;12.52;;;8.90;;
34673;SDS011;20879;55.668;37.858;2023-01-28T04:00:49;9.15;;;5.93;;
34673;SDS011;20879;55.668;37.858;2023-01-28T04:03:24;7.40;;;4.82;;
34673;SDS011;20879;55.668;37.858;2023-01-28T04:06:00;6.90;;;4.18;;
34673;SDS011;20879;55.668;37.858;2023-01-28T04:08:49;10.63;;;8.00;;
34673;SDS011;20879;55.668;37.858;2023-01-28T04:14:02;9.73;;;6.97;;
34673;SDS011;20879;55.668;37.858;2023-01-28T04:16:53;8.75;;;6.05;;
34673;SDS011;20879;55.668;37.858;2023-01-28T04:19:25;13.85;;;8.82;;
34673;SDS011;20879;55.668;37.858;2023-01-28T04:21:59;10.38;;;6.90;;
34673;SDS011;20879;55.668;37.858;2023-01-28T04:24:29;10.98;;;7.85;;
34673;SDS011;20879;55.668;37.858;2023-01-28T04:26:58;10.10;;;7.10;;
34673;SDS011;20879;55.668;37.858;2023-01-28T04:29:27;8.55;;;6.30;;
34673;SDS011;20879;55.668;37.858;2023-01-28T04:32:09;8.65;;;5.40;;
34673;SDS011;20879;55.668;37.858;2023-01-28T04:35:04;9.85;;;7.20;;
34673;SDS011;20879;55.668;37.858;2023-01-28T04:38:11;6.10;;;4.68;;
34673;SDS011;20879;55.668;37.858;2023-01-28T04:40:48;10.85;;;8.35;;
34673;SDS011;20879;55.668;37.858;2023-01-28T04:43:25;10.32;;;7.18;;
34673;SDS011;20879;55.668;37.858;2023-01-28T04:46:13;9.43;;;6.82;;
34673;SDS011;20879;55.668;37.858;2023-01-28T04:48:52;11.80;;;8.63;;
34673;SDS011;20879;55.668;37.858;2023-01-28T04:51:40;11.68;;;6.05;;
34673;SDS011;20879;55.668;37.858;2023-01-28T04:54:14;9.45;;;5.10;;
34673;SDS011;20879;55.668;37.858;2023-01-28T04:56:43;11.60;;;7.50;;
34673;SDS011;20879;55.668;37.858;2023-01-28T04:59:13;5.60;;;2.97;;
34673;SDS011;20879;55.668;37.858;2023-01-28T05:01:47;11.18;;;7.10;;
34673;SDS011;20879;55.668;37.858;2023-01-28T05:04:18;9.52;;;6.68;;
34673;SDS011;20879;55.668;37.858;2023-01-28T05:06:53;11.73;;;8.05;;
34673;SDS011;20879;55.668;37.858;2023-01-28T05:09:31;13.45;;;9.05;;
34673;SDS011;20879;55.668;37.858;2023-01-28T05:12:01;13.50;;;9.18;;
34673;SDS011;20879;55.668;37.858;2023-01-28T05:14:37;11.13;;;6.32;;
34673;SDS011;20879;55.668;37.858;2023-01-28T05:17:10;14.45;;;9.40;;
34673;SDS011;20879;55.668;37.858;2023-01-28T05:19:40;13.90;;;8.73;;
34673;SDS011;20879;55.668;37.858;2023-01-28T05:22:22;13.52;;;9.68;;
34673;SDS011;20879;55.668;37.858;2023-01-28T05:25:16;15.75;;;10.38;;
34673;SDS011;20879;55.668;37.858;2023-01-28T05:27:51;14.95;;;9.35;;
34673;SDS011;20879;55.668;37.858;2023-01-28T05:30:21;23.75;;;13.18;;
34673;SDS011;20879;55.668;37.858;2023-01-28T05:32:55;14.63;;;10.20;;
34673;SDS011;20879;55.668;37.858;2023-01-28T05:35:25;14.52;;;8.48;;
34673;SDS011;20879;55.668;37.858;2023-01-28T05:37:54;13.43;;;8.93;;
34673;SDS011;20879;55.668;37.858;2023-01-28T05:40:25;17.42;;;9.90;;
34673;SDS011;20879;55.668;37.858;2023-01-28T05:42:56;15.00;;;9.55;;
34673;SDS011;20879;55.668;37.858;2023-01-28T05:45:34;16.65;;;11.20;;
34673;SDS011;20879;55.668;37.858;2023-01-28T05:48:13;14.88;;;8.25;;
34673;SDS011;20879;55.668;37.858;2023-01-28T05:51:02;20.38;;;12.48;;
34673;SDS011;20879;55.668;37.858;2023-01-28T05:53:40;18.05;;;11.55;;
34673;SDS011;20879;55.668;37.858;2023-01-28T05:56:11;15.82;;;8.80;;
34673;SDS011;20879;55.668;37.858;2023-01-28T05:58:41;20.88;;;15.70;;
34673;SDS011;20879;55.668;37.858;2023-01-28T06:01:10;17.08;;;9.45;;
34673;SDS011;20879;55.668;37.858;2023-01-28T06:06:29;17.80;;;11.95;;
34673;SDS011;20879;55.668;37.858;2023-01-28T06:08:59;20.08;;;12.70;;
34673;SDS011;20879;55.668;37.858;2023-01-28T06:11:32;14.57;;;8.68;;
34673;SDS011;20879;55.668;37.858;2023-01-28T06:14:12;17.70;;;9.80;;
34673;SDS011;20879;55.668;37.858;2023-01-28T06:17:00;21.73;;;14.73;;
34673;SDS011;20879;55.668;37.858;2023-01-28T06:19:48;25.60;;;17.67;;
34673;SDS011;20879;55.668;37.858;2023-01-28T06:22:17;19.35;;;11.35;;
34673;SDS011;20879;55.668;37.858;2023-01-28T06:24:47;19.02;;;11.40;;
34673;SDS011;20879;55.668;37.858;2023-01-28T06:29:58;16.73;;;11.25;;
34673;SDS011;20879;55.668;37.858;2023-01-28T06:32:29;13.57;;;7.37;;
34673;SDS011;20879;55.668;37.858;2023-01-28T06:34:59;15.00;;;7.35;;
34673;SDS011;20879;55.668;37.858;2023-01-28T06:37:28;19.70;;;11.25;;
34673;SDS011;20879;55.668;37.858;2023-01-28T06:39:58;19.38;;;12.30;;
34673;SDS011;20879;55.668;37.858;2023-01-28T06:42:35;19.50;;;12.23;;
34673;SDS011;20879;55.668;37.858;2023-01-28T06:45:05;16.88;;;11.82;;
34673;SDS011;20879;55.668;37.858;2023-01-28T06:47:40;18.02;;;9.25;;
34673;SDS011;20879;55.668;37.858;2023-01-28T06:50:14;12.75;;;7.90;;
34673;SDS011;20879;55.668;37.858;2023-01-28T06:52:44;17.55;;;12.98;;
34673;SDS011;20879;55.668;37.858;2023-01-28T06:55:14;13.00;;;9.05;;
34673;SDS011;20879;55.668;37.858;2023-01-28T06:57:45;19.00;;;12.27;;
34673;SDS011;20879;55.668;37.858;2023-01-28T07:00:15;22.50;;;15.95;;
34673;SDS011;20879;55.668;37.858;2023-01-28T07:02:45;23.38;;;15.52;;
34673;SDS011;20879;55.668;37.858;2023-01-28T07:05:14;21.63;;;13.27;;
34673;SDS011;20879;55.668;37.858;2023-01-28T07:07:49;14.52;;;8.52;;
34673;SDS011;20879;55.668;37.858;2023-01-28T07:10:25;14.70;;;8.82;;
34673;SDS011;20879;55.668;37.858;2023-01-28T07:12:56;14.95;;;8.07;;
34673;SDS011;20879;55.668;37.858;2023-01-28T07:17:55;21.02;;;13.20;;
34673;SDS011;20879;55.668;37.858;2023-01-28T07:20:25;19.95;;;13.10;;
34673;SDS011;20879;55.668;37.858;2023-01-28T07:22:54;19.33;;;10.55;;
34673;SDS011;20879;55.668;37.858;2023-01-28T07:25:24;19.30;;;12.15;;
34673;SDS011;20879;55.668;37.858;2023-01-28T07:27:53;14.13;;;8.95;;
34673;SDS011;20879;55.668;37.858;2023-01-28T07:33:00;14.20;;;6.55;;
34673;SDS011;20879;55.668;37.858;2023-01-28T07:35:34;17.77;;;11.32;;
34673;SDS011;20879;55.668;37.858;2023-01-28T07:38:04;13.45;;;7.60;;
34673;SDS011;20879;55.668;37.858;2023-01-28T07:40:38;15.25;;;8.35;;
34673;SDS011;20879;55.668;37.858;2023-01-28T07:43:08;18.45;;;12.65;;
34673;SDS011;20879;55.668;37.858;2023-01-28T07:45:51;16.92;;;9.82;;
34673;SDS011;20879;55.668;37.858;2023-01-28T07:48:21;12.43;;;7.88;;
34673;SDS011;20879;55.668;37.858;2023-01-28T07:50:50;16.17;;;9.80;;
34673;SDS011;20879;55.668;37.858;2023-01-28T07:53:19;14.85;;;9.63;;
34673;SDS011;20879;55.668;37.858;2023-01-28T07:55:48;20.23;;;10.60;;
34673;SDS011;20879;55.668;37.858;2023-01-28T07:58:17;21.15;;;12.15;;
34673;SDS011;20879;55.668;37.858;2023-01-28T08:00:47;19.80;;;11.52;;
34673;SDS011;20879;55.668;37.858;2023-01-28T08:03:18;21.08;;;12.07;;
34673;SDS011;20879;55.668;37.858;2023-01-28T08:05:48;21.65;;;14.25;;
34673;SDS011;20879;55.668;37.858;2023-01-28T08:08:18;12.35;;;6.97;;
34673;SDS011;20879;55.668;37.858;2023-01-28T08:10:48;21.70;;;10.65;;
34673;SDS011;20879;55.668;37.858;2023-01-28T08:13:18;14.80;;;8.65;;
34673;SDS011;20879;55.668;37.858;2023-01-28T08:15:47;13.77;;;8.38;;
34673;SDS011;20879;55.668;37.858;2023-01-28T08:18:18;16.35;;;9.90;;
34673;SDS011;20879;55.668;37.858;2023-01-28T08:20:53;16.50;;;9.35;;
34673;SDS011;20879;55.668;37.858;2023-01-28T08:23:23;12.65;;;6.47;;
34673;SDS011;20879;55.668;37.858;2023-01-28T08:25:53;13.48;;;7.32;;
34673;SDS011;20879;55.668;37.858;2023-01-28T08:28:30;25.40;;;10.90;;
34673;SDS011;20879;55.668;37.858;2023-01-28T08:31:00;21.08;;;9.88;;
34673;SDS011;20879;55.668;37.858;2023-01-28T08:33:31;14.35;;;8.10;;
34673;SDS011;20879;55.668;37.858;2023-01-28T08:36:01;11.35;;;5.78;;
34673;SDS011;20879;55.668;37.858;2023-01-28T08:38:31;7.10;;;3.78;;
34673;SDS011;20879;55.668;37.858;2023-01-28T08:41:00;12.60;;;6.30;;
34673;SDS011;20879;55.668;37.858;2023-01-28T08:43:29;11.73;;;7.07;;
34673;SDS011;20879;55.668;37.858;2023-01-28T08:45:59;12.18;;;6.95;;
34673;SDS011;20879;55.668;37.858;2023-01-28T08:48:28;15.57;;;8.60;;
34673;SDS011;20879;55.668;37.858;2023-01-28T08:50:59;12.18;;;5.80;;
34673;SDS011;20879;55.668;37.858;2023-01-28T08:53:35;8.60;;;5.53;;
34673;SDS011;20879;55.668;37.858;2023-01-28T08:56:05;7.30;;;4.07;;
34673;SDS011;20879;55.668;37.858;2023-01-28T08:58:35;10.95;;;6.30;;
34673;SDS011;20879;55.668;37.858;2023-01-28T09:01:04;8.93;;;5.55;;
34673;SDS011;20879;55.668;37.858;2023-01-28T09:03:34;14.55;;;8.25;;
34673;SDS011;20879;55.668;37.858;2023-01-28T09:06:10;10.52;;;5.82;;
34673;SDS011;20879;55.668;37.858;2023-01-28T09:08:40;10.85;;;5.32;;
34673;SDS011;20879;55.668;37.858;2023-01-28T09:11:09;9.93;;;6.10;;
34673;SDS011;20879;55.668;37.858;2023-01-28T09:13:43;9.38;;;6.13;;
34673;SDS011;20879;55.668;37.858;2023-01-28T09:16:12;10.63;;;5.68;;
34673;SDS011;20879;55.668;37.858;2023-01-28T09:18:41;9.65;;;4.75;;
34673;SDS011;20879;55.668;37.858;2023-01-28T09:21:13;8.65;;;5.78;;
34673;SDS011;20879;55.668;37.858;2023-01-28T09:23:42;14.23;;;6.13;;
34673;SDS011;20879;55.668;37.858;2023-01-28T09:26:11;10.63;;;5.47;;
34673;SDS011;20879;55.668;37.858;2023-01-28T09:28:46;10.48;;;4.78;;
34673;SDS011;20879;55.668;37.858;2023-01-28T09:31:15;10.30;;;4.90;;
34673;SDS011;20879;55.668;37.858;2023-01-28T09:33:46;11.68;;;6.65;;
34673;SDS011;20879;55.668;37.858;2023-01-28T09:36:34;10.85;;;5.97;;
34673;SDS011;20879;55.668;37.858;2023-01-28T09:39:04;14.23;;;8.20;;
34673;SDS011;20879;55.668;37.858;2023-01-28T09:41:35;13.38;;;7.93;;
34673;SDS011;20879;55.668;37.858;2023-01-28T09:44:22;9.35;;;5.13;;
34673;SDS011;20879;55.668;37.858;2023-01-28T09:47:03;14.50;;;6.93;;
34673;SDS011;20879;55.668;37.858;2023-01-28T09:49:38;14.77;;;8.90;;
34673;SDS011;20879;55.668;37.858;2023-01-28T09:52:18;13.82;;;7.45;;
34673;SDS011;20879;55.668;37.858;2023-01-28T09:54:58;11.32;;;6.82;;
34673;SDS011;20879;55.668;37.858;2023-01-28T09:57:35;14.82;;;8.13;;
34673;SDS011;20879;55.668;37.858;2023-01-28T10:00:13;12.98;;;7.03;;
34673;SDS011;20879;55.668;37.858;2023-01-28T10:02:49;11.68;;;6.13;;
34673;SDS011;20879;55.668;37.858;2023-01-28T10:05:42;9.60;;;5.05;;
34673;SDS011;20879;55.668;37.858;2023-01-28T10:08:26;9.52;;;5.78;;
34673;SDS011;20879;55.668;37.858;2023-01-28T10:11:07;11.68;;;6.15;;
34673;SDS011;20879;55.668;37.858;2023-01-28T10:13:49;13.45;;;7.97;;
34673;SDS011;20879;55.668;37.858;2023-01-28T10:16:27;10.80;;;6.35;;
34673;SDS011;20879;55.668;37.858;2023-01-28T10:19:04;11.43;;;6.53;;
34673;SDS011;20879;55.668;37.858;2023-01-28T10:21:42;12.48;;;6.93;;
34673;SDS011;20879;55.668;37.858;2023-01-28T10:24:17;12.38;;;7.03;;
34673;SDS011;20879;55.668;37.858;2023-01-28T10:26:53;15.98;;;8.00;;
34673;SDS011;20879;55.668;37.858;2023-01-28T10:29:24;12.35;;;7.53;;
34673;SDS011;20879;55.668;37.858;2023-01-28T10:31:58;13.05;;;7.85;;
34673;SDS011;20879;55.668;37.858;2023-01-28T10:34:30;12.95;;;5.70;;
34673;SDS011;20879;55.668;37.858;2023-01-28T10:37:00;10.90;;;6.40;;
34673;SDS011;20879;55.668;37.858;2023-01-28T10:39:37;13.68;;;6.97;;
34673;SDS011;20879;55.668;37.858;2023-01-28T10:42:12;12.20;;;6.80;;
34673;SDS011;20879;55.668;37.858;2023-01-28T10:44:49;15.27;;;9.10;;
34673;SDS011;20879;55.668;37.858;2023-01-28T10:47:22;17.65;;;8.10;;
34673;SDS011;20879;55.668;37.858;2023-01-28T10:49:57;14.32;;;7.38;;
34673;SDS011;20879;55.668;37.858;2023-01-28T10:52:29;13.93;;;6.32;;
34673;SDS011;20879;55.668;37.858;2023-01-28T10:55:00;10.10;;;5.57;;
34673;SDS011;20879;55.668;37.858;2023-01-28T10:57:31;12.43;;;7.20;;
34673;SDS011;20879;55.668;37.858;2023-01-28T11:00:09;11.90;;;7.60;;
34673;SDS011;20879;55.668;37.858;2023-01-28T11:02:40;21.10;;;11.30;;
34673;SDS011;20879;55.668;37.858;2023-01-28T11:05:14;18.90;;;9.73;;
34673;SDS011;20879;55.668;37.858;2023-01-28T11:08:01;19.45;;;9.10;;
34673;SDS011;20879;55.668;37.858;2023-01-28T11:10:34;15.05;;;7.93;;
34673;SDS011;20879;55.668;37.858;2023-01-28T11:13:11;14.10;;;6.88;;
34673;SDS011;20879;55.668;37.858;2023-01-28T11:15:50;15.00;;;8.52;;
34673;SDS011;20879;55.668;37.858;2023-01-28T11:18:21;14.00;;;7.75;;
34673;SDS011;20879;55.668;37.858;2023-01-28T11:20:58;16.25;;;8.30;;
34673;SDS011;20879;55.668;37.858;2023-01-28T11:23:31;16.67;;;8.30;;
34673;SDS011;20879;55.668;37.858;2023-01-28T11:26:07;19.60;;;8.30;;
34673;SDS011;20879;55.668;37.858;2023-01-28T11:28:43;16.63;;;7.90;;
34673;SDS011;20879;55.668;37.858;2023-01-28T11:31:13;14.77;;;7.90;;
34673;SDS011;20879;55.668;37.858;2023-01-28T11:33:45;12.80;;;6.38;;
34673;SDS011;20879;55.668;37.858;2023-01-28T11:36:18;16.80;;;9.20;;
34673;SDS011;20879;55.668;37.858;2023-01-28T11:38:50;15.70;;;8.13;;
34673;SDS011;20879;55.668;37.858;2023-01-28T11:41:34;13.98;;;8.63;;
34673;SDS011;20879;55.668;37.858;2023-01-28T11:44:08;13.95;;;7.68;;
34673;SDS011;20879;55.668;37.858;2023-01-28T11:46:49;16.52;;;7.65;;
34673;SDS011;20879;55.668;37.858;2023-01-28T11:49:29;12.55;;;7.13;;
34673;SDS011;20879;55.668;37.858;2023-01-28T11:52:13;12.90;;;7.47;;
34673;SDS011;20879;55.668;37.858;2023-01-28T11:54:52;14.27;;;8.57;;
34673;SDS011;20879;55.668;37.858;2023-01-28T11:57:32;16.48;;;7.72;;
34673;SDS011;20879;55.668;37.858;2023-01-28T12:00:19;11.85;;;7.28;;
34673;SDS011;20879;55.668;37.858;2023-01-28T12:03:04;12.93;;;8.25;;
34673;SDS011;20879;55.668;37.858;2023-01-28T12:05:50;16.40;;;7.88;;
34673;SDS011;20879;55.668;37.858;2023-01-28T12:08:26;13.85;;;7.50;;
34673;SDS011;20879;55.668;37.858;2023-01-28T12:11:05;13.73;;;7.82;;
34673;SDS011;20879;55.668;37.858;2023-01-28T12:13:54;14.63;;;8.77;;
34673;SDS011;20879;55.668;37.858;2023-01-28T12:16:42;18.58;;;9.30;;
34673;SDS011;20879;55.668;37.858;2023-01-28T12:19:39;18.65;;;9.30;;
34673;SDS011;20879;55.668;37.858;2023-01-28T12:22:31;17.90;;;9.70;;
34673;SDS011;20879;55.668;37.858;2023-01-28T12:25:18;14.75;;;8.85;;
34673;SDS011;20879;55.668;37.858;2023-01-28T12:27:53;16.50;;;10.10;;
34673;SDS011;20879;55.668;37.858;2023-01-28T12:30:38;16.38;;;9.60;;
34673;SDS011;20879;55.668;37.858;2023-01-28T12:33:30;13.80;;;8.40;;
34673;SDS011;20879;55.668;37.858;2023-01-28T12:36:20;16.27;;;8.60;;
34673;SDS011;20879;55.668;37.858;2023-01-28T12:39:03;17.02;;;9.45;;
34673;SDS011;20879;55.668;37.858;2023-01-28T12:41:45;16.15;;;9.13;;
34673;SDS011;20879;55.668;37.858;2023-01-28T12:44:19;16.70;;;8.48;;
34673;SDS011;20879;55.668;37.858;2023-01-28T12:53:50;14.32;;;8.20;;
34673;SDS011;20879;55.668;37.858;2023-01-28T12:56:27;13.57;;;7.88;;
34673;SDS011;20879;55.668;37.858;2023-01-28T12:59:02;15.35;;;9.02;;
34673;SDS011;20879;55.668;37.858;2023-01-28T13:01:39;17.00;;;8.63;;
34673;SDS011;20879;55.668;37.858;2023-01-28T13:04:15;16.33;;;8.95;;
34673;SDS011;20879;55.668;37.858;2023-01-28T13:07:01;18.33;;;11.05;;
34673;SDS011;20879;55.668;37.858;2023-01-28T13:09:36;17.58;;;10.23;;
34673;SDS011;20879;55.668;37.858;2023-01-28T13:12:11;15.57;;;10.15;;
34673;SDS011;20879;55.668;37.858;2023-01-28T13:14:42;17.85;;;10.18;;
34673;SDS011;20879;55.668;37.858;2023-01-28T13:17:23;19.10;;;10.75;;
34673;SDS011;20879;55.668;37.858;2023-01-28T13:19:54;19.08;;;11.00;;
34673;SDS011;20879;55.668;37.858;2023-01-28T13:22:26;16.48;;;9.65;;
34673;SDS011;20879;55.668;37.858;2023-01-28T13:25:10;16.20;;;10.43;;
34673;SDS011;20879;55.668;37.858;2023-01-28T13:27:41;18.50;;;9.98;;
34673;SDS011;20879;55.668;37.858;2023-01-28T13:30:24;12.45;;;8.35;;
34673;SDS011;20879;55.668;37.858;2023-01-28T13:32:56;17.92;;;10.38;;
34673;SDS011;20879;55.668;37.858;2023-01-28T13:35:28;17.42;;;9.80;;
34673;SDS011;20879;55.668;37.858;2023-01-28T13:38:13;18.30;;;9.95;;
34673;SDS011;20879;55.668;37.858;2023-01-28T13:40:54;16.10;;;9.57;;
34673;SDS011;20879;55.668;37.858;2023-01-28T13:43:26;23.73;;;13.40;;
34673;SDS011;20879;55.668;37.858;2023-01-28T13:46:04;19.23;;;11.95;;
34673;SDS011;20879;55.668;37.858;2023-01-28T13:48:38;20.83;;;11.43;;
34673;SDS011;20879;55.668;37.858;2023-01-28T13:51:14;19.63;;;11.02;;
34673;SDS011;20879;55.668;37.858;2023-01-28T13:53:47;18.48;;;10.52;;
34673;SDS011;20879;55.668;37.858;2023-01-28T13:56:34;19.60;;;10.68;;
34673;SDS011;20879;55.668;37.858;2023-01-28T13:59:12;17.25;;;10.25;;
34673;SDS011;20879;55.668;37.858;2023-01-28T14:04:58;21.45;;;11.85;;
34673;SDS011;20879;55.668;37.858;2023-01-28T14:10:54;19.90;;;9.95;;
34673;SDS011;20879;55.668;37.858;2023-01-28T14:13:39;18.13;;;9.70;;
34673;SDS011;20879;55.668;37.858;2023-01-28T14:16:32;17.95;;;10.35;;
34673;SDS011;20879;55.668;37.858;2023-01-28T14:19:10;19.25;;;10.98;;
34673;SDS011;20879;55.668;37.858;2023-01-28T14:21:41;18.92;;;10.75;;
34673;SDS011;20879;55.668;37.858;2023-01-28T14:24:11;19.20;;;11.25;;
34673;SDS011;20879;55.668;37.858;2023-01-28T14:26:45;23.85;;;13.38;;
34673;SDS011;20879;55.668;37.858;2023-01-28T14:29:34;21.67;;;12.02;;
34673;SDS011;20879;55.668;37.858;2023-01-28T14:32:14;20.25;;;12.10;;
34673;SDS011;20879;55.668;37.858;2023-01-28T14:34:45;18.90;;;11.35;;
34673;SDS011;20879;55.668;37.858;2023-01-28T14:37:16;15.63;;;9.55;;
34673;SDS011;20879;55.668;37.858;2023-01-28T14:39:50;19.02;;;11.70;;
34673;SDS011;20879;55.668;37.858;2023-01-28T14:42:22;17.73;;;11.27;;
34673;SDS011;20879;55.668;37.858;2023-01-28T14:44:59;19.52;;;12.15;;
34673;SDS011;20879;55.668;37.858;2023-01-28T14:47:43;18.35;;;10.75;;
34673;SDS011;20879;55.668;37.858;2023-01-28T14:50:34;20.92;;;12.07;;
34673;SDS011;20879;55.668;37.858;2023-01-28T14:53:25;19.70;;;11.57;;
34673;SDS011;20879;55.668;37.858;2023-01-28T14:56:07;18.63;;;11.57;;
34673;SDS011;20879;55.668;37.858;2023-01-28T14:58:49;20.58;;;11.98;;
34673;SDS011;20879;55.668;37.858;2023-01-28T15:01:27;18.30;;;11.27;;
34673;SDS011;20879;55.668;37.858;2023-01-28T15:03:57;18.10;;;12.10;;
34673;SDS011;20879;55.668;37.858;2023-01-28T15:06:29;15.63;;;10.07;;
34673;SDS011;20879;55.668;37.858;2023-01-28T15:09:05;19.77;;;11.93;;
34673;SDS011;20879;55.668;37.858;2023-01-28T15:11:36;16.65;;;10.27;;
34673;SDS011;20879;55.668;37.858;2023-01-28T15:14:12;17.40;;;10.90;;
34673;SDS011;20879;55.668;37.858;2023-01-28T15:16:49;17.05;;;10.82;;
34673;SDS011;20879;55.668;37.858;2023-01-28T15:19:25;15.85;;;10.55;;
34673;SDS011;20879;55.668;37.858;2023-01-28T15:21:58;19.30;;;11.25;;
34673;SDS011;20879;55.668;37.858;2023-01-28T15:24:30;18.65;;;10.52;;
34673;SDS011;20879;55.668;37.858;2023-01-28T15:27:01;17.77;;;10.50;;
34673;SDS011;20879;55.668;37.858;2023-01-28T15:29:36;16.88;;;9.73;;
34673;SDS011;20879;55.668;37.858;2023-01-28T15:32:16;19.35;;;11.25;;
34673;SDS011;20879;55.668;37.858;2023-01-28T15:34:51;19.52;;;10.65;;
34673;SDS011;20879;55.668;37.858;2023-01-28T15:37:21;17.52;;;10.00;;
34673;SDS011;20879;55.668;37.858;2023-01-28T15:39:59;15.85;;;9.70;;